Time;durP1;ratioP1;P1;durP2;ratioP2;P2;SDS_P1;SDS_P2;PMS_P1;PMS_P2;Temp;Humidity;BMP_temperature;BMP_pressure;BME280_temperature;BME280_humidity;BME280_pressure;Samples;Min_cycle;Max_cycle;Signal;HPM_P1;HPM_P2
2022/06/29 00:00:27;;;;;;;0.10;0.10;;;;;;;26.21;66.85;99894.09;4980653;28;20469;-68
2022/06/29 00:02:53;;;;;;;0.10;0.10;;;;;;;26.21;66.96;99899.81;4994654;28;20112;-70
2022/06/29 00:05:26;;;;;;;0.10;0.10;;;;;;;26.23;66.55;99897.25;4993756;28;20081;-68
2022/06/29 00:07:53;;;;;;;0.10;0.10;;;;;;;26.26;66.70;99901.97;4993635;28;20033;-70
2022/06/29 00:10:20;;;;;;;0.10;0.10;;;;;;;26.19;65.94;99891.69;4992701;28;20092;-69
2022/06/29 00:12:46;;;;;;;0.10;0.10;;;;;;;26.16;66.35;99894.75;4992916;28;20176;-69
2022/06/29 00:15:13;;;;;;;0.10;0.10;;;;;;;26.22;66.50;99895.69;4993214;28;20382;-68
2022/06/29 00:17:39;;;;;;;0.10;0.10;;;;;;;26.18;66.59;99886.50;4992621;28;20034;-69
2022/06/29 00:20:07;;;;;;;0.10;0.10;;;;;;;26.20;66.34;99881.88;4992498;28;20054;-69
2022/06/29 00:22:32;;;;;;;0.10;0.10;;;;;;;26.25;66.15;99869.03;4994478;28;20036;-68
2022/06/29 00:24:58;;;;;;;0.10;0.10;;;;;;;26.21;66.51;99871.28;4993013;28;20432;-69
2022/06/29 00:27:24;;;;;;;0.10;0.10;;;;;;;26.26;66.39;99870.63;4993534;28;20034;-69
2022/06/29 00:29:50;;;;;;;0.10;0.10;;;;;;;26.20;66.71;99881.88;4993549;28;20484;-69
2022/06/29 00:32:16;;;;;;;0.10;0.10;;;;;;;26.22;66.43;99881.41;4993501;28;20176;-68
2022/06/29 00:34:42;;;;;;;0.10;0.10;;;;;;;26.12;66.83;99874.94;4992846;28;20511;-68
2022/06/29 00:37:08;;;;;;;0.10;0.10;;;;;;;26.11;67.05;99870.50;4992837;28;20023;-69
2022/06/29 00:39:36;;;;;;;0.10;0.10;;;;;;;26.09;66.97;99870.19;4993037;28;20169;-69
2022/06/29 00:42:02;;;;;;;0.10;0.10;;;;;;;26.05;67.21;99864.66;4992866;28;20026;-68
2022/06/29 00:44:28;;;;;;;0.10;0.10;;;;;;;26.06;67.32;99869.09;4993148;28;20037;-68
2022/06/29 00:46:59;;;;;;;0.10;0.10;;;;;;;26.05;67.88;99876.06;4992627;28;20408;-67
2022/06/29 00:49:27;;;;;;;0.10;0.10;;;;;;;26.07;67.68;99867.03;4993163;28;20038;-68
2022/06/29 00:52:14;;;;;;;0.10;0.10;;;;;;;26.11;67.28;99867.66;4993245;28;20108;-69
2022/06/29 00:54:45;;;;;;;0.10;0.10;;;;;;;26.15;66.95;99862.56;4992871;28;20072;-68
2022/06/29 00:57:26;;;;;;;0.10;0.10;;;;;;;25.94;67.24;99866.38;4976589;28;20023;-69
2022/06/29 00:59:55;;;;;;;0.10;0.10;;;;;;;26.04;67.38;99867.97;4992499;28;20117;-68
2022/06/29 01:02:23;;;;;;;0.10;0.10;;;;;;;25.91;67.92;99865.28;4992532;28;20033;-69
2022/06/29 01:04:49;;;;;;;0.10;0.10;;;;;;;25.97;67.91;99863.38;4992492;28;20027;-68
2022/06/29 01:07:19;;;;;;;0.10;0.10;;;;;;;25.84;68.57;99854.22;4993645;28;20385;-69
2022/06/29 01:09:48;;;;;;;0.10;0.10;;;;;;;25.80;68.78;99842.19;4992640;28;20477;-69
2022/06/29 01:12:14;;;;;;;0.10;0.10;;;;;;;25.91;68.07;99853.91;4992633;28;20042;-69
2022/06/29 01:14:44;;;;;;;0.10;0.10;;;;;;;25.90;67.78;99842.97;4994744;28;20026;-69
2022/06/29 01:17:11;;;;;;;0.10;0.10;;;;;;;25.85;67.37;99852.97;4996416;28;20076;-69
2022/06/29 01:19:38;;;;;;;0.10;0.10;;;;;;;25.89;67.33;99850.75;5006626;28;20045;-69
2022/06/29 01:22:30;;;;;;;0.10;0.10;;;;;;;25.91;67.07;99858.81;4999589;28;20052;-69
2022/06/29 01:24:57;;;;;;;0.10;0.10;;;;;;;25.87;66.97;99853.25;4995619;28;20048;-69
2022/06/29 01:27:26;;;;;;;0.10;0.10;;;;;;;25.82;67.17;99851.84;4999508;28;20041;-69
2022/06/29 01:29:52;;;;;;;0.10;0.10;;;;;;;25.91;66.69;99847.41;4999452;28;20063;-69
2022/06/29 01:32:19;;;;;;;0.10;0.10;;;;;;;25.85;66.87;99838.72;4999355;28;20029;-68
2022/06/29 01:34:47;;;;;;;0.10;0.10;;;;;;;25.90;66.70;99851.53;4982997;28;20034;-68
2022/06/29 01:37:13;;;;;;;0.10;0.10;;;;;;;25.92;66.65;99849.78;5016742;28;20068;-68
2022/06/29 01:39:40;;;;;;;0.10;0.10;;;;;;;25.90;66.64;99851.53;5016840;28;20026;-68
2022/06/29 01:42:06;;;;;;;0.15;0.15;;;;;;;25.94;66.15;99850.09;4999377;28;20030;-68
2022/06/29 01:44:32;;;;;;;0.10;0.10;;;;;;;26.00;66.00;99844.56;4999055;28;20025;-68
2022/06/29 01:46:57;;;;;;;0.10;0.10;;;;;;;26.06;65.69;99836.94;4999666;28;20025;-68
2022/06/29 01:49:23;;;;;;;0.20;0.20;;;;;;;25.92;66.06;99838.38;4998920;28;20494;-68
2022/06/29 01:51:49;;;;;;;0.10;0.10;;;;;;;25.87;65.97;99836.16;4998842;28;20029;-68
2022/06/29 01:54:15;;;;;;;0.10;0.10;;;;;;;25.85;66.28;99838.72;4998933;28;20025;-68
2022/06/29 01:56:41;;;;;;;0.10;0.10;;;;;;;25.82;66.46;99822.56;4999503;28;20045;-68
2022/06/29 01:59:06;;;;;;;0.10;0.10;;;;;;;25.70;66.56;99826.34;4998902;28;20022;-67
2022/06/29 02:01:32;;;;;;;0.10;0.10;;;;;;;25.81;66.15;99829.53;4999118;28;20034;-68
2022/06/29 02:03:57;;;;;;;0.10;0.10;;;;;;;25.85;66.15;99821.59;4998973;28;20318;-70
2022/06/29 02:06:25;;;;;;;0.10;0.10;;;;;;;26.01;65.82;99818.41;4999299;28;20342;-69
2022/06/29 02:08:52;;;;;;;0.10;0.10;;;;;;;25.82;65.93;99799.75;4998681;28;20065;-69
2022/06/29 02:11:17;;;;;;;0.10;0.10;;;;;;;25.80;66.45;99825.09;4998515;28;20029;-67
2022/06/29 02:13:46;;;;;;;0.10;0.10;;;;;;;25.72;66.71;99818.88;4998561;28;20026;-68
2022/06/29 02:16:14;;;;;;;0.10;0.10;;;;;;;25.69;67.11;99825.56;4998312;28;20092;-68
2022/06/29 02:18:40;;;;;;;0.10;0.10;;;;;;;25.72;66.62;99818.09;4998398;28;20037;-68
2022/06/29 02:21:06;;;;;;;0.10;0.10;;;;;;;25.69;66.28;99825.56;5016161;28;20504;-68
2022/06/29 02:23:31;;;;;;;0.10;0.10;;;;;;;25.64;65.69;99826.19;4998215;28;20121;-68
2022/06/29 02:25:57;;;;;;;0.10;0.10;;;;;;;25.53;65.92;99823.81;4997859;28;20034;-67
2022/06/29 02:28:23;;;;;;;0.10;0.10;;;;;;;25.48;65.49;99815.91;4998295;28;20072;-69
2022/06/29 02:36:16;;;;;;;0.10;0.10;;;;;;;25.43;64.79;99813.69;5015873;28;20515;-69
2022/06/29 02:38:42;;;;;;;0.10;0.10;;;;;;;25.39;64.88;99813.03;4998253;28;20057;-69
2022/06/29 02:41:09;;;;;;;0.10;0.10;;;;;;;25.43;64.18;99819.38;4998424;28;20461;-70
2022/06/29 02:43:37;;;;;;;0.10;0.10;;;;;;;25.56;63.29;99822.06;4998106;28;20034;-69
2022/06/29 02:46:03;;;;;;;0.10;0.10;;;;;;;25.45;63.59;99828.22;4998354;28;20112;-69
2022/06/29 02:48:28;;;;;;;0.10;0.10;;;;;;;25.48;62.83;99817.97;4998045;28;20517;-69
2022/06/29 02:50:54;;;;;;;0.10;0.10;;;;;;;25.45;62.99;99822.53;4997718;28;20033;-68
2022/06/29 02:53:20;;;;;;;0.10;0.10;;;;;;;25.56;62.58;99825.69;4997924;28;20029;-69
2022/06/29 02:55:45;;;;;;;0.10;0.10;;;;;;;25.61;61.91;99825.06;4998415;28;20030;-69
2022/06/29 02:58:11;;;;;;;0.17;0.17;;;;;;;25.51;62.07;99834.88;4997455;28;20042;-69
2022/06/29 03:00:36;;;;;;;0.10;0.10;;;;;;;25.57;62.44;99833.00;5015686;28;20048;-69
2022/06/29 03:03:02;;;;;;;0.10;0.10;;;;;;;25.57;62.95;99832.22;4997757;28;20084;-69
2022/06/29 03:05:27;;;;;;;0.10;0.10;;;;;;;25.52;62.83;99833.63;4997550;28;20125;-68
2022/06/29 03:07:53;;;;;;;0.10;0.10;;;;;;;25.52;62.35;99832.84;4997709;28;20038;-68
2022/06/29 03:10:19;;;;;;;0.10;0.10;;;;;;;25.44;62.22;99826.66;4997921;28;20381;-69
2022/06/29 03:12:44;;;;;;;0.10;0.10;;;;;;;25.56;62.53;99827.75;4997520;28;20465;-69
2022/06/29 03:15:10;;;;;;;0.10;0.10;;;;;;;25.55;63.06;99844.06;4997257;28;20108;-69
2022/06/29 03:17:38;;;;;;;0.10;0.10;;;;;;;25.44;63.82;99820.94;4997244;28;20033;-70
2022/06/29 03:20:05;;;;;;;0.10;0.10;;;;;;;25.34;63.68;99817.31;4996824;28;20046;-70
2022/06/29 03:22:32;;;;;;;0.10;0.10;;;;;;;25.16;63.73;99822.19;4997354;28;20025;-69
2022/06/29 03:24:58;;;;;;;0.10;0.10;;;;;;;25.10;65.11;99824.88;4998103;28;20385;-69
2022/06/29 03:27:24;;;;;;;0.10;0.10;;;;;;;24.88;66.81;99829.84;4997820;28;20080;-68
2022/06/29 03:29:49;;;;;;;0.10;0.10;;;;;;;24.82;68.20;99830.47;4997588;28;20245;-69
2022/06/29 03:32:15;;;;;;;0.10;0.10;;;;;;;24.80;68.80;99823.66;4997498;28;20429;-68
2022/06/29 03:34:42;;;;;;;0.10;0.10;;;;;;;24.76;68.83;99820.16;4997580;28;20396;-69
2022/06/29 03:37:10;;;;;;;0.10;0.10;;;;;;;24.81;68.64;99822.38;5014088;28;20030;-69
2022/06/29 03:39:41;;;;;;;0.13;0.13;;;;;;;24.95;67.90;99823.84;4996872;28;20041;-68
2022/06/29 03:42:07;;;;;;;0.20;0.20;;;;;;;25.00;69.01;99821.19;4997365;28;20026;-69
2022/06/29 03:44:33;;;;;;;0.10;0.10;;;;;;;25.19;69.05;99821.22;4997383;28;20381;-69
2022/06/29 03:47:07;;;;;;;0.20;0.20;;;;;;;25.37;68.50;99818.44;5014833;28;20033;-69
2022/06/29 03:49:33;;;;;;;0.10;0.10;;;;;;;25.39;68.61;99817.94;4996725;28;20049;-69
2022/06/29 03:51:59;;;;;;;0.10;0.10;;;;;;;25.44;68.52;99820.94;4996642;28;20036;-69
2022/06/29 03:54:24;;;;;;;0.10;0.10;;;;;;;25.46;68.52;99823.31;4997022;28;20038;-70
2022/06/29 03:56:50;;;;;;;0.10;0.10;;;;;;;25.43;68.27;99822.22;5014316;28;20476;-70
2022/06/29 03:59:18;;;;;;;0.10;0.10;;;;;;;25.59;68.10;99821.91;4997282;28;20462;-68
2022/06/29 04:01:46;;;;;;;0.10;0.10;;;;;;;25.54;67.98;99819.69;4996962;28;20118;-69
2022/06/29 04:04:12;;;;;;;0.10;0.10;;;;;;;25.48;68.51;99824.44;4996596;28;20030;-69
2022/06/29 04:06:37;;;;;;;0.10;0.10;;;;;;;25.49;69.14;99823.16;4996599;28;20018;-69
2022/06/29 04:09:03;;;;;;;0.10;0.10;;;;;;;25.57;68.93;99824.44;4996817;28;20044;-68
2022/06/29 04:14:15;;;;;;;0.10;0.10;;;;;;;25.78;67.36;99825.59;5014216;28;20045;-69
2022/06/29 04:16:45;;;;;;;0.10;0.10;;;;;;;25.93;66.07;99834.25;4996690;28;20030;-69
2022/06/29 04:19:11;;;;;;;0.17;0.17;;;;;;;26.05;65.61;99835.38;4992840;28;20061;-69
2022/06/29 04:21:36;;;;;;;0.10;0.10;;;;;;;26.16;64.77;99832.00;4993341;28;20030;-69
2022/06/29 04:24:02;;;;;;;0.10;0.10;;;;;;;26.30;64.46;99840.66;4993134;28;20031;-69
2022/06/29 04:26:31;;;;;;;0.10;0.10;;;;;;;26.42;63.03;99843.81;4993348;28;20030;-70
2022/06/29 04:28:56;;;;;;;0.20;0.20;;;;;;;26.30;65.13;99834.97;4993073;28;20041;-69
2022/06/29 04:31:25;;;;;;;0.10;0.10;;;;;;;26.43;64.36;99837.66;4993744;28;20031;-69
2022/06/29 04:33:50;;;;;;;0.10;0.10;;;;;;;26.71;63.60;99846.09;4993423;28;20373;-69
2022/06/29 04:36:16;;;;;;;0.10;0.10;;;;;;;26.75;63.83;99852.44;4993180;28;20037;-69
2022/06/29 04:38:42;;;;;;;0.10;0.10;;;;;;;27.04;63.00;99852.59;4992945;28;20465;-69
2022/06/29 04:41:07;;;;;;;0.10;0.10;;;;;;;27.08;62.64;99850.38;4992581;28;20133;-69
2022/06/29 04:43:33;;;;;;;0.10;0.10;;;;;;;27.04;63.37;99851.81;4993321;28;20034;-70
2022/06/29 04:48:43;;;;;;;0.10;0.10;;;;;;;27.58;60.57;99855.59;4996542;28;20041;-70
2022/06/29 04:51:09;;;;;;;0.10;0.10;;;;;;;27.81;60.61;99856.88;4996704;28;20026;-70
2022/06/29 04:53:34;;;;;;;0.10;0.10;;;;;;;27.75;60.38;99853.91;4997429;28;20041;-71
2022/06/29 04:56:03;;;;;;;0.10;0.10;;;;;;;27.87;59.90;99854.91;4996734;28;20026;-69
2022/06/29 04:58:28;;;;;;;0.10;0.10;;;;;;;28.48;58.36;99858.13;4996814;28;20113;-70
2022/06/29 05:00:54;;;;;;;0.10;0.10;;;;;;;28.24;59.16;99855.34;4996699;28;20064;-69
2022/06/29 05:03:20;;;;;;;0.10;0.10;;;;;;;27.73;60.98;99861.38;4996498;28;20030;-70
2022/06/29 05:05:48;;;;;;;0.10;0.10;;;;;;;27.50;62.25;99866.63;4996305;28;20076;-70
2022/06/29 05:08:14;;;;;;;0.10;0.10;;;;;;;27.08;63.80;99858.94;4996516;28;20154;-68
2022/06/29 05:10:44;;;;;;;0.10;0.10;;;;;;;27.28;63.39;99861.22;4996673;28;20026;-71
2022/06/29 05:13:10;;;;;;;0.10;0.10;;;;;;;27.83;61.61;99860.03;4996206;28;20034;-69
2022/06/29 05:15:40;;;;;;;0.20;0.20;;;;;;;28.21;60.63;99862.03;4996197;28;20068;-70
2022/06/29 05:18:08;;;;;;;0.10;0.10;;;;;;;28.98;59.13;99866.75;4996183;28;20037;-70
2022/06/29 05:20:34;;;;;;;0.10;0.10;;;;;;;29.70;56.68;99874.78;5013865;28;20064;-70
2022/06/29 05:23:04;;;;;;;0.10;0.10;;;;;;;30.27;54.51;99883.53;4999822;28;20029;-70
2022/06/29 05:25:30;;;;;;;0.10;0.10;;;;;;;30.91;52.80;99890.09;4999627;28;20033;-69
2022/06/29 05:27:56;;;;;;;0.10;0.10;;;;;;;30.37;51.56;99895.63;4999810;28;20026;-70
2022/06/29 05:30:22;;;;;;;0.10;0.10;;;;;;;29.47;54.70;99902.34;4999732;28;20033;-69
2022/06/29 05:32:47;;;;;;;0.10;0.10;;;;;;;29.45;54.50;99897.09;4999957;28;20029;-69
2022/06/29 05:35:13;;;;;;;0.10;0.10;;;;;;;30.01;52.33;99900.69;4999357;28;20037;-69
2022/06/29 05:37:42;;;;;;;0.10;0.10;;;;;;;29.20;52.79;99912.91;4999487;28;20030;-69
2022/06/29 05:40:07;;;;;;;0.10;0.10;;;;;;;28.56;54.53;99910.81;4999367;28;20029;-70
2022/06/29 05:42:33;;;;;;;0.10;0.10;;;;;;;28.82;54.80;99911.00;4999118;28;20022;-69
2022/06/29 05:44:58;;;;;;;0.10;0.10;;;;;;;29.59;52.60;99915.56;4999643;28;20037;-70
2022/06/29 05:47:30;;;;;;;0.10;0.10;;;;;;;30.15;51.69;99921.19;4998854;28;20504;-69
2022/06/29 05:49:57;;;;;;;0.10;0.10;;;;;;;30.02;51.60;99910.09;4998931;28;20033;-70
2022/06/29 05:52:26;;;;;;;0.10;0.10;;;;;;;29.89;53.21;99927.69;4998833;28;20291;-69
2022/06/29 05:54:54;;;;;;;0.10;0.10;;;;;;;30.40;51.02;99925.38;4998731;28;20548;-68
2022/06/29 05:57:20;;;;;;;0.10;0.10;;;;;;;30.30;53.91;99938.31;4998983;28;20439;-68
2022/06/29 05:59:48;;;;;;;0.10;0.10;;;;;;;29.77;55.95;99930.88;5015754;28;20033;-68
2022/06/29 06:02:14;;;;;;;0.10;0.10;;;;;;;29.66;55.76;99926.59;4998517;28;20030;-67
2022/06/29 06:04:43;;;;;;;0.10;0.10;;;;;;;29.92;54.92;99931.59;4998847;28;20045;-68
2022/06/29 06:07:08;;;;;;;0.10;0.10;;;;;;;30.45;54.38;99921.78;4998930;28;20121;-68
2022/06/29 06:09:36;;;;;;;0.10;0.10;;;;;;;30.72;52.29;99927.00;4998374;28;20064;-68
2022/06/29 06:12:09;;;;;;;0.10;0.10;;;;;;;30.58;51.15;99902.09;4998358;28;20030;-69
2022/06/29 06:14:34;;;;;;;0.10;0.10;;;;;;;30.87;51.45;99917.47;4998318;28;20041;-68
2022/06/29 06:17:00;;;;;;;0.10;0.10;;;;;;;31.92;49.35;99930.19;4998368;28;20029;-68
2022/06/29 06:19:28;;;;;;;0.10;0.10;;;;;;;31.66;49.70;99931.06;4995231;28;20062;-69
2022/06/29 06:21:54;;;;;;;0.10;0.10;;;;;;;31.65;49.86;99918.00;4995098;28;20141;-69
2022/06/29 06:24:19;;;;;;;0.10;0.10;;;;;;;31.82;49.39;99926.72;4994755;28;20035;-68
2022/06/29 06:26:45;;;;;;;0.10;0.10;;;;;;;32.38;47.87;99931.88;4994822;28;20062;-69
2022/06/29 06:29:10;;;;;;;0.10;0.10;;;;;;;31.44;50.64;99925.22;4995275;28;20030;-68
2022/06/29 06:31:36;;;;;;;0.10;0.10;;;;;;;32.07;49.81;99936.50;4994813;28;20066;-69
2022/06/29 06:34:02;;;;;;;0.10;0.10;;;;;;;32.93;47.94;99933.28;4994830;28;20169;-69
2022/06/29 06:36:28;;;;;;;0.10;0.10;;;;;;;33.46;46.15;99937.16;4995346;28;20040;-70
2022/06/29 06:38:53;;;;;;;0.10;0.10;;;;;;;33.65;45.02;99908.50;4995027;28;20376;-70
2022/06/29 06:41:21;;;;;;;0.10;0.10;;;;;;;33.09;46.13;99936.16;4995021;28;20039;-70
2022/06/29 06:43:52;;;;;;;0.10;0.10;;;;;;;33.27;46.50;99937.69;4994970;28;20053;-70
2022/06/29 06:46:19;;;;;;;0.10;0.10;;;;;;;32.45;48.29;99926.41;4995157;28;20384;-70
2022/06/29 06:48:45;;;;;;;0.10;0.10;;;;;;;32.07;49.18;99922.91;4995090;28;20105;-69
2022/06/29 06:51:11;;;;;;;0.10;0.10;;;;;;;32.69;47.73;99931.66;4994822;28;20477;-70
2022/06/29 06:53:37;;;;;;;0.10;0.10;;;;;;;32.19;48.27;99929.47;4994439;28;20076;-71
2022/06/29 06:56:03;;;;;;;0.10;0.10;;;;;;;31.75;49.82;99928.00;4994468;28;20030;-71
2022/06/29 06:58:30;;;;;;;0.10;0.10;;;;;;;31.35;51.90;99931.16;4994951;28;20030;-70
2022/06/29 07:00:56;;;;;;;0.10;0.10;;;;;;;31.88;50.26;99918.91;4994627;28;20370;-68
2022/06/29 07:03:22;;;;;;;0.10;0.10;;;;;;;31.76;50.19;99920.16;4994272;28;20049;-71
2022/06/29 07:05:47;;;;;;;0.10;0.10;;;;;;;32.25;49.17;99927.38;4994254;28;20027;-70
2022/06/29 07:08:13;;;;;;;0.10;0.10;;;;;;;32.70;47.71;99918.81;4995151;28;20042;-70
2022/06/29 07:10:41;;;;;;;0.10;0.10;;;;;;;32.24;49.23;99917.19;4993808;28;20037;-70
2022/06/29 07:13:07;;;;;;;0.10;0.10;;;;;;;32.53;47.48;99926.69;4993283;28;20193;-70
2022/06/29 07:15:38;;;;;;;0.10;0.10;;;;;;;32.53;47.60;99920.91;4994165;28;20117;-70
2022/06/29 07:18:04;;;;;;;0.10;0.10;;;;;;;33.37;46.23;99918.78;4993718;28;20030;-71
2022/06/29 07:20:30;;;;;;;0.10;0.10;;;;;;;33.72;45.58;99917.41;4993270;28;20053;-70
2022/06/29 07:22:56;;;;;;;0.10;0.10;;;;;;;34.22;43.23;99921.38;4993655;28;20041;-70
2022/06/29 07:25:24;;;;;;;0.10;0.10;;;;;;;35.08;41.93;99921.03;4993722;28;20034;-67
2022/06/29 07:27:50;;;;;;;0.10;0.10;;;;;;;35.17;41.28;99920.69;4993970;28;20560;-68
2022/06/29 07:30:16;;;;;;;0.10;0.10;;;;;;;35.13;41.96;99917.28;4993813;28;20117;-68
2022/06/29 07:32:41;;;;;;;0.10;0.10;;;;;;;35.89;39.73;99919.06;4993764;28;20026;-68
2022/06/29 07:35:07;;;;;;;0.10;0.10;;;;;;;35.59;41.02;99912.63;4993682;28;20069;-67
2022/06/29 07:37:32;;;;;;;0.10;0.10;;;;;;;34.59;42.47;99904.34;4993532;28;20038;-69
2022/06/29 07:40:00;;;;;;;0.10;0.10;;;;;;;34.84;41.87;99924.63;4993464;28;20034;-68
2022/06/29 07:42:26;;;;;;;0.10;0.10;;;;;;;35.67;40.71;99911.44;4989574;28;20057;-68
2022/06/29 07:44:51;;;;;;;0.10;0.10;;;;;;;34.77;42.38;99919.44;4993524;28;20069;-68
2022/06/29 07:47:17;;;;;;;0.10;0.10;;;;;;;36.04;40.18;99912.84;4994465;28;20092;-68
2022/06/29 07:49:42;;;;;;;0.10;0.10;;;;;;;35.06;41.89;99907.13;4993743;28;20037;-70
2022/06/29 07:52:08;;;;;;;0.10;0.10;;;;;;;35.52;40.55;99914.00;4993922;28;20058;-68
2022/06/29 07:54:33;;;;;;;0.10;0.10;;;;;;;34.03;43.14;99912.56;4993275;28;20038;-69
2022/06/29 07:56:59;;;;;;;0.10;0.10;;;;;;;34.45;43.13;99907.59;4993829;28;20034;-69
2022/06/29 07:59:25;;;;;;;0.10;0.10;;;;;;;34.82;42.27;99910.72;4993093;28;20477;-69
2022/06/29 08:01:51;;;;;;;0.10;0.10;;;;;;;34.61;42.86;99906.69;4993271;28;20054;-69
2022/06/29 08:04:16;;;;;;;0.10;0.10;;;;;;;34.55;43.43;99906.72;4993114;28;20034;-68
2022/06/29 08:06:42;;;;;;;0.10;0.10;;;;;;;34.81;42.61;99903.38;4993230;28;20125;-69
2022/06/29 08:09:07;;;;;;;0.10;0.10;;;;;;;34.82;42.50;99904.94;4993013;28;20057;-70
2022/06/29 08:11:33;;;;;;;0.10;0.10;;;;;;;35.47;41.89;99908.28;4993029;28;20031;-69
2022/06/29 08:13:58;;;;;;;0.10;0.10;;;;;;;36.17;39.85;99910.03;4992906;28;20051;-69
2022/06/29 08:16:24;;;;;;;0.10;0.10;;;;;;;36.29;39.42;99909.88;4993031;28;20057;-69
2022/06/29 08:18:49;;;;;;;0.10;0.10;;;;;;;36.35;39.12;99902.66;4995382;28;20030;-69
2022/06/29 08:21:15;;;;;;;0.10;0.10;;;;;;;35.23;41.53;99895.38;4996625;28;20034;-69
2022/06/29 08:23:40;;;;;;;0.10;0.10;;;;;;;35.46;40.99;99895.16;4996160;28;20111;-69
2022/06/29 08:26:06;;;;;;;0.10;0.10;;;;;;;35.63;40.40;99895.72;4996164;28;20495;-69
2022/06/29 08:28:32;;;;;;;0.10;0.10;;;;;;;36.09;39.86;99905.41;4996161;28;20030;-69
2022/06/29 08:30:57;;;;;;;0.10;0.10;;;;;;;36.18;39.40;99902.91;4996439;28;20041;-69
2022/06/29 08:33:23;;;;;;;0.10;0.10;;;;;;;36.18;39.56;99905.03;4995889;28;20088;-69
2022/06/29 08:35:49;;;;;;;0.10;0.10;;;;;;;36.28;39.32;99914.09;4996234;28;20030;-69
2022/06/29 08:38:18;;;;;;;0.10;0.10;;;;;;;35.70;41.03;99903.81;4995584;28;20117;-69
2022/06/29 08:40:47;;;;;;;0.10;0.10;;;;;;;36.23;39.82;99907.06;4996231;28;20153;-70
2022/06/29 08:43:15;;;;;;;0.10;0.10;;;;;;;36.18;39.68;99908.72;4979990;28;20026;-69
2022/06/29 08:45:48;;;;;;;0.10;0.10;;;;;;;36.77;38.37;99905.97;4980279;28;20026;-69
2022/06/29 08:48:15;;;;;;;0.10;0.10;;;;;;;37.21;37.41;99913.09;4996226;28;20022;-69
2022/06/29 08:50:42;;;;;;;0.10;0.10;;;;;;;36.33;39.31;99898.72;4996270;28;20034;-69
2022/06/29 08:53:13;;;;;;;0.10;0.10;;;;;;;36.77;38.49;99905.97;4979853;28;20034;-69
2022/06/29 08:55:42;;;;;;;0.10;0.10;;;;;;;36.39;39.34;99888.66;4995785;28;20030;-70
2022/06/29 08:58:12;;;;;;;0.10;0.10;;;;;;;36.67;38.11;99899.03;4979740;28;20034;-70
2022/06/29 09:00:38;;;;;;;0.10;0.10;;;;;;;36.54;39.64;99899.78;4996364;28;20033;-69
2022/06/29 09:03:04;;;;;;;0.10;0.10;;;;;;;35.69;41.08;99905.13;4996189;28;20412;-70
2022/06/29 09:05:36;;;;;;;0.10;0.10;;;;;;;36.09;39.86;99902.53;4996305;28;20036;-70
2022/06/29 09:08:02;;;;;;;0.10;0.10;;;;;;;35.89;39.66;99901.69;5013034;28;20026;-70
2022/06/29 09:10:29;;;;;;;0.10;0.10;;;;;;;35.56;40.78;99896.34;4996192;28;20036;-70
2022/06/29 09:12:57;;;;;;;0.10;0.10;;;;;;;36.33;39.58;99890.03;4996112;28;20449;-70
2022/06/29 09:15:40;;;;;;;0.10;0.10;;;;;;;36.63;38.74;99905.13;4995440;28;20491;-71
2022/06/29 09:18:25;;;;;;;0.10;0.10;;;;;;;36.22;39.87;99893.91;4996136;28;20090;-70
2022/06/29 09:20:56;;;;;;;0.10;0.10;;;;;;;35.33;41.38;99908.16;5013349;28;20050;-70
2022/06/29 09:23:23;;;;;;;0.10;0.10;;;;;;;35.53;41.54;99900.31;4995752;28;20481;-69
2022/06/29 09:25:52;;;;;;;0.10;0.10;;;;;;;35.92;40.72;99894.81;4979609;28;20030;-69
2022/06/29 09:28:21;;;;;;;0.10;0.10;;;;;;;35.98;40.45;99896.88;4995727;28;20033;-69
2022/06/29 09:30:47;;;;;;;0.10;0.10;;;;;;;36.66;38.90;99914.84;4995883;28;20034;-69
2022/06/29 09:33:13;;;;;;;0.10;0.10;;;;;;;36.02;40.35;99903.16;4995399;28;20434;-68
2022/06/29 09:35:40;;;;;;;0.10;0.10;;;;;;;35.42;41.20;99906.97;4997557;28;20037;-67
2022/06/29 09:38:25;;;;;;;0.10;0.10;;;;;;;36.17;40.35;99909.25;4998727;28;20026;-68
2022/06/29 09:40:57;;;;;;;0.10;0.10;;;;;;;36.11;40.53;99908.53;4999286;28;20026;-69
2022/06/29 09:43:23;;;;;;;0.10;0.10;;;;;;;36.05;40.76;99910.72;4998925;28;20060;-70
2022/06/29 09:45:51;;;;;;;0.10;0.10;;;;;;;35.64;41.37;99908.88;4998561;28;20068;-70
2022/06/29 09:48:21;;;;;;;0.10;0.10;;;;;;;36.10;41.41;99915.66;4998661;28;20101;-69
2022/06/29 09:50:50;;;;;;;0.10;0.10;;;;;;;35.98;41.06;99905.56;4998763;28;20038;-70
2022/06/29 09:53:17;;;;;;;0.10;0.10;;;;;;;35.03;42.72;99901.63;5015890;28;20029;-69
2022/06/29 09:55:48;;;;;;;0.10;0.10;;;;;;;35.80;40.88;99892.63;4999119;28;20062;-70
2022/06/29 09:58:18;;;;;;;0.10;0.10;;;;;;;35.35;42.38;99910.50;4998868;28;20107;-70
2022/06/29 10:03:31;;;;;;;0.10;0.10;;;;;;;35.29;42.54;99916.34;5016409;28;20491;-70
2022/06/29 10:06:05;;;;;;;0.10;0.10;;;;;;;35.20;42.25;99916.69;5016056;28;20029;-70
2022/06/29 10:08:37;;;;;;;0.10;0.10;;;;;;;35.62;41.65;99902.84;4984095;28;20088;-68
2022/06/29 10:14:02;;;;;;;0.10;0.10;;;;;;;35.24;42.24;99899.06;5016188;28;20364;-68
2022/06/29 10:16:33;;;;;;;0.10;0.10;;;;;;;34.96;42.86;99905.13;4998714;28;20026;-69
2022/06/29 10:19:14;;;;;;;0.10;0.10;;;;;;;34.32;43.86;99897.44;4994865;28;20490;-69
2022/06/29 10:21:42;;;;;;;0.10;0.10;;;;;;;34.80;42.98;99907.59;4995480;28;20034;-69
2022/06/29 10:24:10;;;;;;;0.10;0.10;;;;;;;34.11;44.36;99893.38;4995092;28;20029;-69
2022/06/29 10:26:36;;;;;;;0.10;0.10;;;;;;;34.08;44.21;99895.19;4995554;28;20476;-70
2022/06/29 10:29:19;;;;;;;0.10;0.10;;;;;;;34.33;44.07;99895.31;4995331;28;20030;-69
2022/06/29 10:31:54;;;;;;;0.10;0.10;;;;;;;34.55;44.00;99891.50;4995695;28;20038;-70
2022/06/29 10:34:31;;;;;;;0.10;0.10;;;;;;;34.61;42.99;99887.25;4994902;28;20026;-70
2022/06/29 10:37:07;;;;;;;0.10;0.10;;;;;;;35.19;42.49;99889.09;4994952;28;20174;-70
2022/06/29 10:39:48;;;;;;;0.10;0.10;;;;;;;34.76;42.57;99866.63;4994889;28;20027;-69
2022/06/29 10:45:26;;;;;;;0.10;0.10;;;;;;;34.72;42.93;99886.38;4996315;28;20053;-70
2022/06/29 10:47:58;;;;;;;0.10;0.10;;;;;;;34.84;42.73;99867.63;4995139;28;20034;-69
2022/06/29 10:50:31;;;;;;;0.10;0.10;;;;;;;34.60;43.08;99874.13;4995381;28;20022;-70
2022/06/29 10:53:17;;;;;;;0.10;0.10;;;;;;;34.73;42.14;99873.50;4995192;28;20041;-70
2022/06/29 10:55:46;;;;;;;0.10;0.10;;;;;;;34.67;42.78;99869.88;4994684;28;20030;-69
2022/06/29 10:58:12;;;;;;;0.10;0.10;;;;;;;34.37;43.33;99864.84;4979106;28;20042;-71
2022/06/29 11:00:42;;;;;;;0.10;0.10;;;;;;;34.43;43.05;99856.13;4994760;28;20065;-69
2022/06/29 11:03:13;;;;;;;0.10;0.10;;;;;;;33.71;44.63;99857.34;4994983;28;20192;-70
2022/06/29 11:13:59;;;;;;;0.10;0.10;;;;;;;34.30;42.99;99859.63;4995542;28;20040;-68
2022/06/29 11:16:36;;;;;;;0.10;0.10;;;;;;;34.58;42.20;99873.91;4995487;28;20049;-69
2022/06/29 11:19:05;;;;;;;0.10;0.10;;;;;;;33.44;45.16;99865.56;4999872;28;20054;-70
2022/06/29 11:21:31;;;;;;;0.10;0.10;;;;;;;33.83;44.69;99862.53;4996894;28;20076;-69
2022/06/29 11:24:03;;;;;;;0.10;0.10;;;;;;;34.45;43.43;99856.41;5015207;28;20038;-72
2022/06/29 11:26:29;;;;;;;0.10;0.10;;;;;;;34.48;43.24;99857.44;5014992;28;20486;-70
2022/06/29 11:28:57;;;;;;;0.10;0.10;;;;;;;34.54;42.30;99861.84;4997457;28;20461;-69
2022/06/29 11:31:24;;;;;;;0.10;0.10;;;;;;;33.54;45.18;99858.19;4997164;28;20026;-68
2022/06/29 11:33:53;;;;;;;0.10;0.10;;;;;;;33.74;44.86;99853.41;4997062;28;20057;-69
2022/06/29 11:36:25;;;;;;;0.10;0.10;;;;;;;33.88;44.75;99844.41;4997061;28;20030;-68
2022/06/29 11:39:04;;;;;;;0.10;0.10;;;;;;;34.51;43.77;99856.34;4997540;28;20116;-68
2022/06/29 11:44:28;;;;;;;0.10;0.10;;;;;;;33.74;45.72;99847.63;5014499;28;20049;-70
2022/06/29 11:46:56;;;;;;;0.10;0.10;;;;;;;34.11;44.51;99844.28;4997427;28;20105;-69
2022/06/29 11:49:33;;;;;;;0.10;0.10;;;;;;;33.74;45.45;99842.66;4997215;28;20503;-68
2022/06/29 11:52:06;;;;;;;0.10;0.10;;;;;;;34.21;44.50;99850.53;4997017;28;20033;-69
2022/06/29 11:54:38;;;;;;;0.10;0.10;;;;;;;34.11;44.90;99844.28;4996956;28;20544;-70
2022/06/29 11:57:05;;;;;;;0.10;0.10;;;;;;;33.78;45.62;99843.16;4997022;28;20037;-68
2022/06/29 11:59:34;;;;;;;0.10;0.10;;;;;;;33.77;45.65;99841.59;4996195;28;20033;-70
2022/06/29 12:02:02;;;;;;;0.10;0.10;;;;;;;34.29;44.33;99837.06;4996708;28;20084;-69
2022/06/29 12:04:32;;;;;;;0.10;0.10;;;;;;;33.65;46.32;99845.81;5014531;28;20053;-70
2022/06/29 12:07:06;;;;;;;0.10;0.10;;;;;;;33.85;45.58;99841.81;5014426;28;20029;-68